全部
Satu Mare Int'l Airport (Satu Mare) SUJ 天气
|
Satu Mare (SUJ / LRSM)
晴天
微风 |
|
12 °C |
SUJ终端机场天气预报
| Date | Time (EEST) | Flight Rules | Wind Dir. | Speed | Type | Height AGL (ft) | Visibility | Remarks | ||||||
|---|---|---|---|---|---|---|---|---|---|---|---|---|---|---|
SUJ近期METAR历史数据
| Date | Time (EEST) | Flight Rules | Wind Dir. | Speed | Type | Height AGL (ft) | Visibility | Temp (°C) | Temp (°F) | Dew Point (°C) | Dew Point (°F) | Rel. Humid. | Pressure | Density Altitude | Remarks |
|---|---|---|---|---|---|---|---|---|---|---|---|---|---|---|---|
| 03-五月 | 08:30 | VFR | 120° | 6 kt | 10000 meters | 12° | 53° | 1° | 33° | 47% | 1023 mb | -235 ft | |||
| 03-五月 | 08:00 | VFR | 110° | 6 kt | 10000 meters | 10° | 50° | 1° | 33° | 53% | 1023 mb | -475 ft | |||
| 03-五月 | 07:30 | VFR | 110° | 6 kt | 10000 meters | 8° | 46° | 1° | 33° | 61% | 1023 mb | -715 ft | |||
| 03-五月 | 07:00 | VFR | 110° | 5 kt | 10000 meters | 6° | 42° | 1° | 33° | 70% | 1023 mb | -955 ft | |||
| 03-五月 | 06:30 | VFR | 110° | 5 kt | 10000 meters | 5° | 41° | 0° | 32° | 70% | 1022 mb | -1,046 ft | |||
| 03-五月 | 06:00 | VFR | 110° | 6 kt | 10000 meters | 5° | 41° | 0° | 32° | 70% | 1022 mb | -1,046 ft | |||
| 03-五月 | 05:30 | VFR | 100° | 6 kt | 10000 meters | 4° | 39° | -1° | 30° | 70% | 1022 mb | -1,166 ft | |||
| 03-五月 | 05:00 | VFR | 80° | 7 kt | 10000 meters | 5° | 41° | -1° | 30° | 65% | 1022 mb | -1,046 ft | |||
| 03-五月 | 04:30 | VFR | 130° | 5 kt | 10000 meters | 8° | 46° | -1° | 30° | 53% | 1022 mb | -686 ft | |||
| 03-五月 | 04:00 | VFR | 120° | 5 kt | 10000 meters | 4° | 39° | -2° | 28° | 65% | 1022 mb | -1,166 ft | |||
| 03-五月 | 03:30 | VFR | 50° | 3 kt | 10000 meters | 4° | 39° | -2° | 28° | 65% | 1022 mb | -1,166 ft | |||
| 03-五月 | 03:00 | VFR | 90° | 3 kt | 10000 meters | 5° | 41° | -1° | 30° | 65% | 1022 mb | -1,046 ft | |||
| 03-五月 | 02:30 | VFR | 100° | 5 kt | 10000 meters | 6° | 42° | -2° | 28° | 56% | 1022 mb | -926 ft | |||
| 03-五月 | 02:00 | VFR | 110° | 5 kt | 10000 meters | 7° | 44° | -1° | 30° | 57% | 1022 mb | -806 ft | |||
| 03-五月 | 01:30 | VFR | 70° | 3 kt | 10000 meters | 6° | 42° | -1° | 30° | 61% | 1022 mb | -926 ft | |||
| 03-五月 | 01:00 | VFR | Variable | 2 kt | 10000 meters | 7° | 44° | -1° | 30° | 57% | 1022 mb | -806 ft | |||
| 03-五月 | 00:30 | VFR | 120° | 3 kt | 10000 meters | 9° | 48° | 0° | 32° | 53% | 1022 mb | -566 ft | |||
| 03-五月 | 00:00 | VFR | 90° | 7 kt | 10000 meters | 10° | 50° | -1° | 30° | 46% | 1022 mb | -446 ft | |||
| 02-五月 | 23:30 | VFR | 120° | 5 kt | 10000 meters | 10° | 50° | -1° | 30° | 46% | 1022 mb | -446 ft | |||
| 02-五月 | 23:00 | VFR | 80° | 6 kt | 10000 meters | 10° | 50° | -1° | 30° | 46% | 1021 mb | -416 ft | |||
| 02-五月 | 22:30 | VFR | 90° | 7 kt | 10000 meters | 11° | 51° | 0° | 32° | 47% | 1021 mb | -296 ft | |||
| 02-五月 | 22:00 | VFR | 90° | 7 kt | 10000 meters | 13° | 55° | 0° | 32° | 41% | 1021 mb | -56 ft | |||
| 02-五月 | 21:30 | VFR | 100° | 8 kt | 10000 meters | 14° | 57° | 0° | 32° | 38% | 1021 mb | 64 ft | |||
| 02-五月 | 21:00 | VFR | 80° | 7 kt | 10000 meters | 14° | 57° | 0° | 32° | 38% | 1020 mb | 93 ft |
登录
| 您的浏览器不支持. 升级您的浏览器 |
